sensor_id;sensor_type;location;lat;lon;timestamp;pressure;altitude;pressure_sealevel;temperature;humidity
37390;BME280;39679;49.000;8.390;2022-07-12T00:03:58;100867.41;;;24.45;43.73
37390;BME280;39679;49.000;8.390;2022-07-12T00:08:58;100861.25;;;24.43;43.84
37390;BME280;39679;49.000;8.390;2022-07-12T00:13:59;100863.06;;;24.42;43.63
37390;BME280;39679;49.000;8.390;2022-07-12T00:18:59;100868.44;;;24.42;43.86
37390;BME280;39679;49.000;8.390;2022-07-12T00:23:59;100867.56;;;24.42;43.61
37390;BME280;39679;49.000;8.390;2022-07-12T00:29:00;100875.66;;;24.40;43.93
37390;BME280;39679;49.000;8.390;2022-07-12T00:34:00;100874.72;;;24.41;43.70
37390;BME280;39679;49.000;8.390;2022-07-12T00:39:00;100879.25;;;24.39;43.78
37390;BME280;39679;49.000;8.390;2022-07-12T00:44:01;100866.81;;;24.38;43.87
37390;BME280;39679;49.000;8.390;2022-07-12T00:49:01;100867.66;;;24.39;43.62
37390;BME280;39679;49.000;8.390;2022-07-12T00:54:03;100869.50;;;24.38;43.64
37390;BME280;39679;49.000;8.390;2022-07-12T00:59:04;100865.06;;;24.37;43.81
37390;BME280;39679;49.000;8.390;2022-07-12T01:04:05;100866.00;;;24.36;43.92
37390;BME280;39679;49.000;8.390;2022-07-12T01:09:05;100865.06;;;24.37;44.04
37390;BME280;39679;49.000;8.390;2022-07-12T01:14:06;100868.69;;;24.36;43.71
37390;BME280;39679;49.000;8.390;2022-07-12T01:19:07;100874.03;;;24.36;44.09
37390;BME280;39679;49.000;8.390;2022-07-12T01:24:08;100873.16;;;24.36;43.70
37390;BME280;39679;49.000;8.390;2022-07-12T01:29:10;100877.63;;;24.35;43.69
37390;BME280;39679;49.000;8.390;2022-07-12T01:34:11;100867.88;;;24.34;44.13
37390;BME280;39679;49.000;8.390;2022-07-12T01:39:11;100864.25;;;24.35;44.09
37390;BME280;39679;49.000;8.390;2022-07-12T01:44:12;100866.09;;;24.33;43.69
37390;BME280;39679;49.000;8.390;2022-07-12T01:49:12;100863.34;;;24.35;43.95
37390;BME280;39679;49.000;8.390;2022-07-12T01:54:12;100878.59;;;24.34;43.79
37390;BME280;39679;49.000;8.390;2022-07-12T01:59:13;100877.78;;;24.32;43.93
37390;BME280;39679;49.000;8.390;2022-07-12T02:04:18;100875.94;;;24.33;43.67
37390;BME280;39679;49.000;8.390;2022-07-12T02:09:18;100872.44;;;24.31;44.11
37390;BME280;39679;49.000;8.390;2022-07-12T02:14:19;100879.63;;;24.30;43.53
37390;BME280;39679;49.000;8.390;2022-07-12T02:19:19;100875.19;;;24.29;43.76
37390;BME280;39679;49.000;8.390;2022-07-12T02:24:19;100870.78;;;24.28;43.72
37390;BME280;39679;49.000;8.390;2022-07-12T02:29:20;100884.22;;;24.27;44.10
37390;BME280;39679;49.000;8.390;2022-07-12T02:34:20;100884.28;;;24.25;43.95
37390;BME280;39679;49.000;8.390;2022-07-12T02:39:21;100877.19;;;24.24;44.15
37390;BME280;39679;49.000;8.390;2022-07-12T02:44:21;100878.03;;;24.25;43.84
37390;BME280;39679;49.000;8.390;2022-07-12T02:49:21;100871.88;;;24.23;43.75
37390;BME280;39679;49.000;8.390;2022-07-12T02:54:22;100887.94;;;24.23;44.15
37390;BME280;39679;49.000;8.390;2022-07-12T02:59:22;100893.38;;;24.21;44.06
37390;BME280;39679;49.000;8.390;2022-07-12T03:04:22;100889.81;;;24.21;44.10
37390;BME280;39679;49.000;8.390;2022-07-12T03:09:23;100888.97;;;24.20;44.27
37390;BME280;39679;49.000;8.390;2022-07-12T03:14:23;100898.78;;;24.20;44.02
37390;BME280;39679;49.000;8.390;2022-07-12T03:19:23;100902.38;;;24.19;44.11
37390;BME280;39679;49.000;8.390;2022-07-12T03:24:24;100905.06;;;24.19;43.92
37390;BME280;39679;49.000;8.390;2022-07-12T03:29:24;100901.53;;;24.18;43.92
37390;BME280;39679;49.000;8.390;2022-07-12T03:34:24;100901.53;;;24.18;44.45
37390;BME280;39679;49.000;8.390;2022-07-12T03:39:26;100908.75;;;24.16;44.37
37390;BME280;39679;49.000;8.390;2022-07-12T03:44:26;100904.31;;;24.15;44.45
37390;BME280;39679;49.000;8.390;2022-07-12T03:49:27;100915.91;;;24.16;44.06
37390;BME280;39679;49.000;8.390;2022-07-12T03:54:27;100915.91;;;24.16;44.27
37390;BME280;39679;49.000;8.390;2022-07-12T03:59:27;100911.47;;;24.15;44.46
37390;BME280;39679;49.000;8.390;2022-07-12T04:04:28;100920.47;;;24.14;44.38
37390;BME280;39679;49.000;8.390;2022-07-12T04:09:28;100919.50;;;24.15;44.43
37390;BME280;39679;49.000;8.390;2022-07-12T04:14:29;100924.94;;;24.13;44.15
37390;BME280;39679;49.000;8.390;2022-07-12T04:19:29;100931.19;;;24.12;44.29
37390;BME280;39679;49.000;8.390;2022-07-12T04:24:29;100930.34;;;24.12;44.22
37390;BME280;39679;49.000;8.390;2022-07-12T04:29:30;100931.25;;;24.11;44.46
37390;BME280;39679;49.000;8.390;2022-07-12T04:34:30;100936.75;;;24.08;44.11
37390;BME280;39679;49.000;8.390;2022-07-12T04:39:30;100931.34;;;24.09;44.19
37390;BME280;39679;49.000;8.390;2022-07-12T04:44:31;100933.94;;;24.11;44.28
37390;BME280;39679;49.000;8.390;2022-07-12T04:49:31;100931.44;;;24.06;44.34
37390;BME280;39679;49.000;8.390;2022-07-12T04:54:32;100934.09;;;24.06;44.67
37390;BME280;39679;49.000;8.390;2022-07-12T04:59:32;100935.94;;;24.06;44.66
37390;BME280;39679;49.000;8.390;2022-07-12T05:04:33;100935.97;;;24.04;44.76
37390;BME280;39679;49.000;8.390;2022-07-12T05:09:34;100934.25;;;24.03;44.43
37390;BME280;39679;49.000;8.390;2022-07-12T05:14:34;100945.84;;;24.02;44.66
37390;BME280;39679;49.000;8.390;2022-07-12T05:19:35;100950.38;;;24.00;44.62
37390;BME280;39679;49.000;8.390;2022-07-12T05:24:35;100949.38;;;24.03;44.38
37390;BME280;39679;49.000;8.390;2022-07-12T05:29:35;100956.53;;;24.02;44.44
37390;BME280;39679;49.000;8.390;2022-07-12T05:34:37;100960.09;;;24.03;44.69
37390;BME280;39679;49.000;8.390;2022-07-12T05:39:37;100967.25;;;24.02;44.83
37390;BME280;39679;49.000;8.390;2022-07-12T05:44:38;100967.25;;;24.02;44.60
37390;BME280;39679;49.000;8.390;2022-07-12T05:49:38;100976.22;;;24.01;44.47
37390;BME280;39679;49.000;8.390;2022-07-12T05:54:39;100975.34;;;24.01;45.24
37390;BME280;39679;49.000;8.390;2022-07-12T05:59:39;100976.22;;;24.01;44.56
37390;BME280;39679;49.000;8.390;2022-07-12T06:04:39;100978.97;;;24.00;44.79
37390;BME280;39679;49.000;8.390;2022-07-12T06:09:40;100987.03;;;23.98;44.80
37390;BME280;39679;49.000;8.390;2022-07-12T06:14:40;100988.03;;;23.96;45.11
37390;BME280;39679;49.000;8.390;2022-07-12T06:19:40;100985.38;;;23.96;44.81
37390;BME280;39679;49.000;8.390;2022-07-12T06:24:41;100987.09;;;23.97;44.75
37390;BME280;39679;49.000;8.390;2022-07-12T06:29:41;100989.84;;;23.95;45.11
37390;BME280;39679;49.000;8.390;2022-07-12T06:34:41;101001.38;;;23.97;45.04
37390;BME280;39679;49.000;8.390;2022-07-12T06:39:42;100994.31;;;23.95;45.11
37390;BME280;39679;49.000;8.390;2022-07-12T06:44:42;100996.91;;;23.96;44.80
37390;BME280;39679;49.000;8.390;2022-07-12T06:49:42;101012.06;;;23.97;45.02
37390;BME280;39679;49.000;8.390;2022-07-12T06:54:43;101013.94;;;23.95;45.12
37390;BME280;39679;49.000;8.390;2022-07-12T06:59:43;101023.75;;;23.95;44.79
37390;BME280;39679;49.000;8.390;2022-07-12T07:04:44;101026.44;;;23.95;44.89
37390;BME280;39679;49.000;8.390;2022-07-12T07:09:44;101020.16;;;23.96;44.81
37390;BME280;39679;49.000;8.390;2022-07-12T07:14:45;101020.19;;;23.94;44.74
37390;BME280;39679;49.000;8.390;2022-07-12T07:19:46;101029.13;;;23.95;45.16
37390;BME280;39679;49.000;8.390;2022-07-12T07:24:46;101038.03;;;23.95;45.19
37390;BME280;39679;49.000;8.390;2022-07-12T07:29:46;101031.78;;;23.95;44.85
37390;BME280;39679;49.000;8.390;2022-07-12T07:34:47;101038.03;;;23.95;44.98
37390;BME280;39679;49.000;8.390;2022-07-12T07:39:47;101029.13;;;23.95;45.09
37390;BME280;39679;49.000;8.390;2022-07-12T07:44:47;101030.88;;;23.96;45.11
37390;BME280;39679;49.000;8.390;2022-07-12T07:49:48;101021.97;;;23.95;44.64
37390;BME280;39679;49.000;8.390;2022-07-12T07:54:48;101015.66;;;23.96;45.07
37390;BME280;39679;49.000;8.390;2022-07-12T07:59:48;101016.53;;;23.97;44.96
37390;BME280;39679;49.000;8.390;2022-07-12T08:04:49;101012.13;;;23.96;45.00
37390;BME280;39679;49.000;8.390;2022-07-12T08:09:49;101015.66;;;23.96;44.76
37390;BME280;39679;49.000;8.390;2022-07-12T08:14:49;101014.81;;;23.96;44.87
37390;BME280;39679;49.000;8.390;2022-07-12T08:19:50;101015.66;;;23.96;44.59
37390;BME280;39679;49.000;8.390;2022-07-12T08:24:50;101019.22;;;23.97;44.87
37390;BME280;39679;49.000;8.390;2022-07-12T08:29:50;101030.88;;;23.96;44.84
37390;BME280;39679;49.000;8.390;2022-07-12T08:34:51;101027.25;;;23.97;44.84
37390;BME280;39679;49.000;8.390;2022-07-12T08:39:51;101029.06;;;23.96;44.64
37390;BME280;39679;49.000;8.390;2022-07-12T08:44:55;101026.34;;;23.98;44.42
37390;BME280;39679;49.000;8.390;2022-07-12T09:00:27;101024.56;;;23.97;44.51
37390;BME280;39679;49.000;8.390;2022-07-12T09:05:33;101023.66;;;23.98;44.27
37390;BME280;39679;49.000;8.390;2022-07-12T09:10:56;101019.22;;;23.97;44.37
37390;BME280;39679;49.000;8.390;2022-07-12T09:16:11;101027.19;;;23.98;44.56
37390;BME280;39679;49.000;8.390;2022-07-12T09:21:25;101029.88;;;23.98;44.40
37390;BME280;39679;49.000;8.390;2022-07-12T09:26:32;101029.03;;;23.98;44.29
37390;BME280;39679;49.000;8.390;2022-07-12T09:31:49;101028.97;;;23.99;44.39
37390;BME280;39679;49.000;8.390;2022-07-12T09:36:57;101028.06;;;23.99;44.44
37390;BME280;39679;49.000;8.390;2022-07-12T09:41:58;101034.38;;;23.98;44.53
37390;BME280;39679;49.000;8.390;2022-07-12T09:46:58;101035.22;;;23.98;44.04
37390;BME280;39679;49.000;8.390;2022-07-12T09:51:59;101028.97;;;23.99;44.16
37390;BME280;39679;49.000;8.390;2022-07-12T09:57:03;101027.16;;;24.00;44.14
37390;BME280;39679;49.000;8.390;2022-07-12T10:02:04;101020.03;;;23.99;44.34
37390;BME280;39679;49.000;8.390;2022-07-12T10:07:05;101018.25;;;23.99;44.46
37390;BME280;39679;49.000;8.390;2022-07-12T10:12:06;101020.94;;;23.99;44.39
37390;BME280;39679;49.000;8.390;2022-07-12T10:17:08;101025.34;;;24.00;44.28
37390;BME280;39679;49.000;8.390;2022-07-12T10:22:19;101012.84;;;24.01;44.04
37390;BME280;39679;49.000;8.390;2022-07-12T10:32:35;101007.47;;;24.01;44.11
37390;BME280;39679;49.000;8.390;2022-07-12T10:37:37;101011.91;;;24.02;44.42
37390;BME280;39679;49.000;8.390;2022-07-12T10:42:37;101015.50;;;24.01;43.88
37390;BME280;39679;49.000;8.390;2022-07-12T10:47:56;101022.63;;;24.02;44.13
37390;BME280;39679;49.000;8.390;2022-07-12T10:53:24;101018.13;;;24.02;44.19
37390;BME280;39679;49.000;8.390;2022-07-12T10:58:30;101011.03;;;24.01;44.23
37390;BME280;39679;49.000;8.390;2022-07-12T11:09:04;101002.94;;;24.03;43.91
37390;BME280;39679;49.000;8.390;2022-07-12T11:14:05;101008.28;;;24.03;43.98
37390;BME280;39679;49.000;8.390;2022-07-12T11:19:06;101006.53;;;24.03;43.89
37390;BME280;39679;49.000;8.390;2022-07-12T11:24:19;100994.91;;;24.03;43.91
37390;BME280;39679;49.000;8.390;2022-07-12T11:29:21;100997.59;;;24.03;44.20
37390;BME280;39679;49.000;8.390;2022-07-12T11:34:23;100995.81;;;24.03;44.03
37390;BME280;39679;49.000;8.390;2022-07-12T11:39:37;100984.16;;;24.04;44.18
37390;BME280;39679;49.000;8.390;2022-07-12T11:49:44;100977.00;;;24.05;44.09
37390;BME280;39679;49.000;8.390;2022-07-12T11:54:47;100983.25;;;24.05;44.03
37390;BME280;39679;49.000;8.390;2022-07-12T11:59:47;100984.13;;;24.06;43.96
37390;BME280;39679;49.000;8.390;2022-07-12T12:04:54;100987.66;;;24.06;43.73
37390;BME280;39679;49.000;8.390;2022-07-12T12:15:03;100974.25;;;24.08;43.91
37390;BME280;39679;49.000;8.390;2022-07-12T12:20:36;100962.59;;;24.09;43.95
37390;BME280;39679;49.000;8.390;2022-07-12T12:25:37;100960.78;;;24.09;43.66
37390;BME280;39679;49.000;8.390;2022-07-12T12:30:52;100954.47;;;24.10;43.46
37390;BME280;39679;49.000;8.390;2022-07-12T12:35:52;100939.31;;;24.11;43.74
37390;BME280;39679;49.000;8.390;2022-07-12T12:40:52;100944.59;;;24.12;43.54
37390;BME280;39679;49.000;8.390;2022-07-12T12:45:54;100952.59;;;24.14;43.58
37390;BME280;39679;49.000;8.390;2022-07-12T12:56:08;100945.38;;;24.16;43.56
37390;BME280;39679;49.000;8.390;2022-07-12T13:01:09;100940.84;;;24.18;43.78
37390;BME280;39679;49.000;8.390;2022-07-12T13:06:09;100949.75;;;24.18;43.67
37390;BME280;39679;49.000;8.390;2022-07-12T13:11:10;100949.69;;;24.20;43.59
37390;BME280;39679;49.000;8.390;2022-07-12T13:16:10;100930.88;;;24.21;43.84
37390;BME280;39679;49.000;8.390;2022-07-12T13:21:10;100930.81;;;24.23;43.56
37390;BME280;39679;49.000;8.390;2022-07-12T13:26:11;100936.13;;;24.24;43.81
37390;BME280;39679;49.000;8.390;2022-07-12T13:31:11;100934.28;;;24.25;43.57
37390;BME280;39679;49.000;8.390;2022-07-12T13:36:12;100936.94;;;24.26;43.74
37390;BME280;39679;49.000;8.390;2022-07-12T13:41:12;100937.75;;;24.28;43.54
37390;BME280;39679;49.000;8.390;2022-07-12T13:46:12;100932.41;;;24.28;43.64
37390;BME280;39679;49.000;8.390;2022-07-12T13:51:13;100931.38;;;24.31;43.24
37390;BME280;39679;49.000;8.390;2022-07-12T13:56:14;100928.66;;;24.32;43.20
37390;BME280;39679;49.000;8.390;2022-07-12T14:01:14;100928.59;;;24.34;43.49
37390;BME280;39679;49.000;8.390;2022-07-12T14:06:17;100929.47;;;24.34;43.44
37390;BME280;39679;49.000;8.390;2022-07-12T14:11:17;100926.72;;;24.36;43.60
37390;BME280;39679;49.000;8.390;2022-07-12T14:16:17;100923.91;;;24.39;43.58
37390;BME280;39679;49.000;8.390;2022-07-12T14:21:18;100915.88;;;24.39;43.18
37390;BME280;39679;49.000;8.390;2022-07-12T14:26:18;100923.00;;;24.40;43.46
37390;BME280;39679;49.000;8.390;2022-07-12T14:31:19;100910.41;;;24.42;43.01
37390;BME280;39679;49.000;8.390;2022-07-12T14:36:19;100911.22;;;24.44;43.23
37390;BME280;39679;49.000;8.390;2022-07-12T14:41:19;100910.28;;;24.45;42.98
37390;BME280;39679;49.000;8.390;2022-07-12T14:46:20;100907.50;;;24.48;43.34
37390;BME280;39679;49.000;8.390;2022-07-12T14:51:20;100886.94;;;24.48;43.33
37390;BME280;39679;49.000;8.390;2022-07-12T14:56:20;100890.44;;;24.50;43.23
37390;BME280;39679;49.000;8.390;2022-07-12T15:01:21;100893.03;;;24.52;43.22
37390;BME280;39679;49.000;8.390;2022-07-12T15:06:21;100886.78;;;24.53;42.87
37390;BME280;39679;49.000;8.390;2022-07-12T15:11:22;100892.00;;;24.56;43.01
37390;BME280;39679;49.000;8.390;2022-07-12T15:16:22;100883.88;;;24.58;43.10
37390;BME280;39679;49.000;8.390;2022-07-12T15:21:23;100880.28;;;24.59;43.14
37390;BME280;39679;49.000;8.390;2022-07-12T15:26:23;100874.84;;;24.60;43.12
37390;BME280;39679;49.000;8.390;2022-07-12T15:31:24;100875.72;;;24.61;43.18
37390;BME280;39679;49.000;8.390;2022-07-12T15:36:24;100872.97;;;24.62;42.79
37390;BME280;39679;49.000;8.390;2022-07-12T15:41:25;100869.38;;;24.63;43.01
37390;BME280;39679;49.000;8.390;2022-07-12T15:46:25;100862.16;;;24.65;42.80
37390;BME280;39679;49.000;8.390;2022-07-12T15:51:25;100858.59;;;24.65;42.80
37390;BME280;39679;49.000;8.390;2022-07-12T15:56:26;100865.66;;;24.67;42.96
37390;BME280;39679;49.000;8.390;2022-07-12T16:01:26;100867.38;;;24.68;42.77
37390;BME280;39679;49.000;8.390;2022-07-12T16:06:26;100858.41;;;24.69;42.92
37390;BME280;39679;49.000;8.390;2022-07-12T16:11:27;100851.22;;;24.70;42.99
37390;BME280;39679;49.000;8.390;2022-07-12T16:16:27;100848.53;;;24.70;42.75
37390;BME280;39679;49.000;8.390;2022-07-12T16:21:28;100837.78;;;24.71;42.90
37390;BME280;39679;49.000;8.390;2022-07-12T16:26:28;100845.75;;;24.73;43.10
37390;BME280;39679;49.000;8.390;2022-07-12T16:31:28;100842.19;;;24.72;42.82
37390;BME280;39679;49.000;8.390;2022-07-12T16:36:29;100844.88;;;24.72;42.64
37390;BME280;39679;49.000;8.390;2022-07-12T16:41:29;100839.50;;;24.72;42.58
37390;BME280;39679;49.000;8.390;2022-07-12T16:46:29;100839.50;;;24.72;42.95
37390;BME280;39679;49.000;8.390;2022-07-12T16:51:30;100843.97;;;24.73;42.96
37390;BME280;39679;49.000;8.390;2022-07-12T16:56:31;100846.66;;;24.73;42.78
37390;BME280;39679;49.000;8.390;2022-07-12T17:01:31;100843.97;;;24.73;42.79
37390;BME280;39679;49.000;8.390;2022-07-12T17:06:32;100841.31;;;24.73;42.73
37390;BME280;39679;49.000;8.390;2022-07-12T17:11:32;100842.16;;;24.74;43.02
37390;BME280;39679;49.000;8.390;2022-07-12T17:16:32;100833.25;;;24.73;42.81
37390;BME280;39679;49.000;8.390;2022-07-12T17:21:33;100845.72;;;24.74;42.56
37390;BME280;39679;49.000;8.390;2022-07-12T17:26:33;100841.31;;;24.73;43.04
37390;BME280;39679;49.000;8.390;2022-07-12T17:31:33;100837.66;;;24.74;42.55
37390;BME280;39679;49.000;8.390;2022-07-12T17:36:34;100838.53;;;24.75;42.71
37390;BME280;39679;49.000;8.390;2022-07-12T17:41:34;100831.44;;;24.74;42.95
37390;BME280;39679;49.000;8.390;2022-07-12T17:46:35;100838.53;;;24.75;42.91
37390;BME280;39679;49.000;8.390;2022-07-12T17:51:35;100844.78;;;24.75;42.80
37390;BME280;39679;49.000;8.390;2022-07-12T17:56:36;100844.78;;;24.75;42.78
37390;BME280;39679;49.000;8.390;2022-07-12T18:01:36;100842.09;;;24.75;42.58
37390;BME280;39679;49.000;8.390;2022-07-12T18:06:37;100841.16;;;24.76;42.97
37390;BME280;39679;49.000;8.390;2022-07-12T18:11:37;100844.78;;;24.75;42.55
37390;BME280;39679;49.000;8.390;2022-07-12T18:16:38;100843.75;;;24.78;42.62
37390;BME280;39679;49.000;8.390;2022-07-12T18:21:39;100845.63;;;24.76;42.84
37390;BME280;39679;49.000;8.390;2022-07-12T18:26:39;100851.88;;;24.76;42.61
37390;BME280;39679;49.000;8.390;2022-07-12T18:31:39;100849.13;;;24.78;42.83
37390;BME280;39679;49.000;8.390;2022-07-12T18:36:40;100855.38;;;24.78;42.49
37390;BME280;39679;49.000;8.390;2022-07-12T18:41:41;100848.22;;;24.79;42.63
37390;BME280;39679;49.000;8.390;2022-07-12T18:46:42;100849.13;;;24.78;42.69
37390;BME280;39679;49.000;8.390;2022-07-12T18:51:42;100850.88;;;24.79;42.66
37390;BME280;39679;49.000;8.390;2022-07-12T18:56:42;100847.31;;;24.78;42.49
37390;BME280;39679;49.000;8.390;2022-07-12T19:01:43;100845.59;;;24.77;42.43
37390;BME280;39679;49.000;8.390;2022-07-12T19:06:43;100848.22;;;24.79;42.43
37390;BME280;39679;49.000;8.390;2022-07-12T19:11:44;100847.31;;;24.78;42.44
37390;BME280;39679;49.000;8.390;2022-07-12T19:16:44;100851.75;;;24.79;42.41
37390;BME280;39679;49.000;8.390;2022-07-12T19:21:44;100851.75;;;24.79;42.51
37390;BME280;39679;49.000;8.390;2022-07-12T19:26:45;100855.31;;;24.80;42.56
37390;BME280;39679;49.000;8.390;2022-07-12T19:31:45;100861.53;;;24.80;42.51
37390;BME280;39679;49.000;8.390;2022-07-12T19:36:45;100866.06;;;24.80;42.49
37390;BME280;39679;49.000;8.390;2022-07-12T19:41:46;100878.50;;;24.81;42.84
37390;BME280;39679;49.000;8.390;2022-07-12T19:46:46;100887.44;;;24.81;42.74
37390;BME280;39679;49.000;8.390;2022-07-12T19:51:46;100886.53;;;24.81;42.32
37390;BME280;39679;49.000;8.390;2022-07-12T19:56:47;100882.97;;;24.80;42.65
37390;BME280;39679;49.000;8.390;2022-07-12T20:01:47;100887.44;;;24.81;42.33
37390;BME280;39679;49.000;8.390;2022-07-12T20:06:48;100885.63;;;24.82;42.76
37390;BME280;39679;49.000;8.390;2022-07-12T20:11:48;100885.63;;;24.82;42.56
37390;BME280;39679;49.000;8.390;2022-07-12T20:16:48;100889.16;;;24.82;42.76
37390;BME280;39679;49.000;8.390;2022-07-12T20:21:49;100884.66;;;24.83;42.55
37390;BME280;39679;49.000;8.390;2022-07-12T20:26:50;100884.66;;;24.83;42.51
37390;BME280;39679;49.000;8.390;2022-07-12T20:31:50;100889.13;;;24.84;42.32
37390;BME280;39679;49.000;8.390;2022-07-12T20:36:51;100884.59;;;24.84;42.69
37390;BME280;39679;49.000;8.390;2022-07-12T20:41:53;100887.28;;;24.84;42.69
37390;BME280;39679;49.000;8.390;2022-07-12T20:46:55;100893.53;;;24.85;42.62
37390;BME280;39679;49.000;8.390;2022-07-12T20:51:56;100895.28;;;24.86;42.22
37390;BME280;39679;49.000;8.390;2022-07-12T20:56:57;100890.84;;;24.85;42.63
37390;BME280;39679;49.000;8.390;2022-07-12T21:01:57;100888.16;;;24.85;42.38
37390;BME280;39679;49.000;8.390;2022-07-12T21:06:57;100892.59;;;24.86;42.29
37390;BME280;39679;49.000;8.390;2022-07-12T21:11:58;100888.16;;;24.85;42.43
37390;BME280;39679;49.000;8.390;2022-07-12T21:16:59;100888.09;;;24.86;42.36
37390;BME280;39679;49.000;8.390;2022-07-12T21:21:59;100890.72;;;24.88;42.32
37390;BME280;39679;49.000;8.390;2022-07-12T21:27:01;100889.84;;;24.87;42.41
37390;BME280;39679;49.000;8.390;2022-07-12T21:32:02;100892.53;;;24.87;42.45
37390;BME280;39679;49.000;8.390;2022-07-12T21:37:02;100888.06;;;24.88;42.52
37390;BME280;39679;49.000;8.390;2022-07-12T21:42:03;100888.91;;;24.88;42.70
37390;BME280;39679;49.000;8.390;2022-07-12T21:47:03;100886.22;;;24.88;42.56
37390;BME280;39679;49.000;8.390;2022-07-12T21:52:04;100894.34;;;24.87;42.60
37390;BME280;39679;49.000;8.390;2022-07-12T21:57:04;100889.84;;;24.87;42.41
37390;BME280;39679;49.000;8.390;2022-07-12T22:02:05;100894.25;;;24.88;42.66
37390;BME280;39679;49.000;8.390;2022-07-12T22:07:05;100888.91;;;24.88;42.42
37390;BME280;39679;49.000;8.390;2022-07-12T22:12:05;100891.66;;;24.87;42.76
37390;BME280;39679;49.000;8.390;2022-07-12T22:17:06;100891.72;;;24.85;43.17
37390;BME280;39679;49.000;8.390;2022-07-12T22:22:06;100903.25;;;24.87;43.34
37390;BME280;39679;49.000;8.390;2022-07-12T22:27:06;100894.34;;;24.87;43.18
37390;BME280;39679;49.000;8.390;2022-07-12T22:32:07;100894.41;;;24.85;42.89
37390;BME280;39679;49.000;8.390;2022-07-12T22:37:07;100882.72;;;24.86;42.87
37390;BME280;39679;49.000;8.390;2022-07-12T22:42:08;100883.69;;;24.85;43.05
37390;BME280;39679;49.000;8.390;2022-07-12T22:47:08;100894.34;;;24.87;43.25
37390;BME280;39679;49.000;8.390;2022-07-12T22:52:08;100900.56;;;24.87;43.14
37390;BME280;39679;49.000;8.390;2022-07-12T22:57:09;100896.13;;;24.86;42.92
37390;BME280;39679;49.000;8.390;2022-07-12T23:02:09;100899.84;;;24.84;43.09
37390;BME280;39679;49.000;8.390;2022-07-12T23:07:09;100890.97;;;24.82;43.35
37390;BME280;39679;49.000;8.390;2022-07-12T23:12:10;100895.41;;;24.83;44.36
37390;BME280;39679;49.000;8.390;2022-07-12T23:17:10;100907.00;;;24.83;44.50
37390;BME280;39679;49.000;8.390;2022-07-12T23:22:10;100901.63;;;24.83;44.32
37390;BME280;39679;49.000;8.390;2022-07-12T23:27:11;100904.94;;;24.90;44.35
37390;BME280;39679;49.000;8.390;2022-07-12T23:32:11;100912.78;;;24.94;44.88
37390;BME280;39679;49.000;8.390;2022-07-12T23:37:11;100900.19;;;24.96;44.44
37390;BME280;39679;49.000;8.390;2022-07-12T23:42:11;100896.44;;;25.00;44.58
37390;BME280;39679;49.000;8.390;2022-07-12T23:47:12;100899.91;;;25.02;44.66
37390;BME280;39679;49.000;8.390;2022-07-12T23:52:12;100904.22;;;25.06;44.81
37390;BME280;39679;49.000;8.390;2022-07-12T23:57:13;100897.94;;;25.07;44.46
